createdAt,value
2022-12-02T00:00:13.812Z,383
2022-12-02T00:01:12.301Z,372
2022-12-02T00:02:13.138Z,374
2022-12-02T00:03:12.690Z,382
2022-12-02T00:04:12.461Z,380
2022-12-02T00:05:12.463Z,360
2022-12-02T00:06:12.521Z,403
2022-12-02T00:07:12.835Z,400
2022-12-02T00:08:12.789Z,376
2022-12-02T00:10:12.036Z,371
2022-12-02T00:11:12.585Z,363
2022-12-02T00:12:12.615Z,377
2022-12-02T00:13:12.189Z,376
2022-12-02T00:14:12.535Z,374
2022-12-02T00:15:12.982Z,387
2022-12-02T00:16:12.412Z,385
2022-12-02T00:17:12.801Z,392
2022-12-02T00:18:12.446Z,387
2022-12-02T00:19:12.437Z,378
2022-12-02T00:20:13.191Z,374
2022-12-02T00:21:12.698Z,363
2022-12-02T00:22:12.301Z,369
2022-12-02T00:23:12.838Z,375
2022-12-02T00:24:12.153Z,380
2022-12-02T00:25:13.009Z,381
2022-12-02T00:26:12.855Z,377
2022-12-02T00:27:12.003Z,376
2022-12-02T00:28:12.052Z,369
2022-12-02T00:29:12.190Z,362
2022-12-02T00:30:12.287Z,360
2022-12-02T00:31:12.695Z,350
2022-12-02T00:32:12.100Z,367
2022-12-02T00:33:12.103Z,369
2022-12-02T00:34:11.641Z,368
2022-12-02T00:35:13.005Z,374
2022-12-02T00:36:12.338Z,385
2022-12-02T00:37:12.831Z,370
2022-12-02T00:38:12.483Z,372
2022-12-02T00:39:12.062Z,377
2022-12-02T00:40:12.935Z,382
2022-12-02T00:41:12.128Z,375
2022-12-02T00:42:12.383Z,378
2022-12-02T00:43:17.517Z,373
2022-12-02T00:44:12.532Z,375
2022-12-02T00:45:13.611Z,370
2022-12-02T00:47:13.075Z,373
2022-12-02T00:49:12.103Z,376
2022-12-02T00:50:12.707Z,378
2022-12-02T00:51:12.106Z,379
2022-12-02T00:52:12.200Z,373
2022-12-02T00:53:12.933Z,380
2022-12-02T00:54:12.314Z,383
2022-12-02T00:55:13.463Z,379
2022-12-02T00:56:12.770Z,388
2022-12-02T00:57:12.666Z,381
2022-12-02T00:58:12.373Z,383
2022-12-02T00:59:12.972Z,377
2022-12-02T01:00:12.958Z,390
2022-12-02T01:01:14.438Z,380
2022-12-02T01:02:12.807Z,375
2022-12-02T01:03:12.476Z,378
2022-12-02T01:04:13.144Z,376
2022-12-02T01:05:12.903Z,377
2022-12-02T01:07:12.222Z,374
2022-12-02T01:08:12.835Z,373
2022-12-02T01:09:12.745Z,385
2022-12-02T01:10:12.079Z,380
2022-12-02T01:11:12.213Z,385
2022-12-02T01:12:12.147Z,372
2022-12-02T01:13:12.756Z,377
2022-12-02T01:14:13.001Z,369
2022-12-02T01:15:13.080Z,386
2022-12-02T01:16:12.272Z,388
2022-12-02T01:17:12.811Z,385
2022-12-02T01:18:12.278Z,373
2022-12-02T01:19:11.992Z,372
2022-12-02T01:20:12.725Z,382
2022-12-02T01:21:12.388Z,387
2022-12-02T01:22:13.159Z,378
2022-12-02T01:23:12.856Z,373
2022-12-02T01:24:12.465Z,388
2022-12-02T01:25:12.318Z,384
2022-12-02T01:26:12.730Z,368
2022-12-02T01:28:12.449Z,371
2022-12-02T01:29:12.589Z,373
2022-12-02T01:30:13.058Z,379
2022-12-02T01:31:12.328Z,382
2022-12-02T01:32:11.482Z,383
2022-12-02T01:33:12.163Z,381
2022-12-02T01:34:12.939Z,370
2022-12-02T01:35:12.577Z,375
2022-12-02T01:36:12.902Z,376
2022-12-02T01:37:12.291Z,385
2022-12-02T01:38:12.618Z,381
2022-12-02T01:39:12.587Z,378
2022-12-02T01:40:13.424Z,383
2022-12-02T01:41:12.660Z,387
2022-12-02T01:42:12.359Z,381
2022-12-02T01:43:13.254Z,379
2022-12-02T01:44:12.315Z,381
2022-12-02T01:45:12.947Z,388
2022-12-02T01:46:12.106Z,385
2022-12-02T01:47:12.866Z,373
2022-12-02T01:49:12.105Z,385
2022-12-02T01:51:12.955Z,377
2022-12-02T01:52:12.356Z,375
2022-12-02T01:53:12.029Z,379
2022-12-02T01:54:12.343Z,385
2022-12-02T01:55:12.782Z,382
2022-12-02T01:57:12.173Z,380
2022-12-02T01:58:12.402Z,374
2022-12-02T01:59:12.755Z,400
2022-12-02T02:00:12.190Z,394
2022-12-02T02:01:12.476Z,385
2022-12-02T02:02:12.207Z,384
2022-12-02T02:03:12.627Z,383
2022-12-02T02:04:13.127Z,389
2022-12-02T02:05:12.635Z,380
2022-12-02T02:06:12.718Z,377
2022-12-02T02:07:12.146Z,373
2022-12-02T02:08:12.361Z,371
2022-12-02T02:10:13.070Z,378
2022-12-02T02:11:12.143Z,382
2022-12-02T02:12:12.621Z,380
2022-12-02T02:13:12.941Z,374
2022-12-02T02:14:12.256Z,378
2022-12-02T02:15:13.151Z,383
2022-12-02T02:16:12.447Z,377
2022-12-02T02:17:13.156Z,378
2022-12-02T02:18:12.539Z,382
2022-12-02T02:19:12.949Z,388
2022-12-02T02:20:12.284Z,373
2022-12-02T02:21:13.224Z,404
2022-12-02T02:22:12.545Z,399
2022-12-02T02:23:13.116Z,367
2022-12-02T02:24:12.293Z,371
2022-12-02T02:25:16.170Z,372
2022-12-02T02:26:12.007Z,381
2022-12-02T02:27:12.035Z,382
2022-12-02T02:28:12.200Z,380
2022-12-02T02:29:12.653Z,379
2022-12-02T02:30:13.203Z,386
2022-12-02T02:32:12.395Z,380
2022-12-02T02:33:12.800Z,377
2022-12-02T02:34:12.250Z,378
2022-12-02T02:35:13.221Z,381
2022-12-02T02:36:12.803Z,387
2022-12-02T02:38:12.971Z,383
2022-12-02T02:39:12.399Z,373
2022-12-02T02:40:13.009Z,386
2022-12-02T02:41:12.484Z,387
2022-12-02T02:42:13.206Z,384
2022-12-02T02:43:13.316Z,357
2022-12-02T02:44:12.645Z,396
2022-12-02T02:45:13.118Z,395
2022-12-02T02:46:12.294Z,385
2022-12-02T02:47:12.610Z,380
2022-12-02T02:48:12.363Z,385
2022-12-02T02:49:12.512Z,389
2022-12-02T02:50:12.998Z,388
2022-12-02T02:51:12.585Z,382
2022-12-02T02:52:12.072Z,375
2022-12-02T02:53:12.722Z,362
2022-12-02T02:54:12.989Z,361
2022-12-02T02:55:13.075Z,375
2022-12-02T02:56:12.333Z,381
2022-12-02T02:57:13.344Z,396
2022-12-02T02:58:12.948Z,379
2022-12-02T02:59:12.185Z,367
2022-12-02T03:01:13.276Z,373
2022-12-02T03:02:13.280Z,386
2022-12-02T03:03:12.531Z,394
2022-12-02T03:04:13.201Z,386
2022-12-02T03:06:12.684Z,368
2022-12-02T03:07:12.065Z,390
2022-12-02T03:08:12.426Z,379
2022-12-02T03:09:12.539Z,380
2022-12-02T03:10:13.012Z,369
2022-12-02T03:11:12.841Z,379
2022-12-02T03:12:12.945Z,395
2022-12-02T03:13:12.158Z,391
2022-12-02T03:14:15.597Z,390
2022-12-02T03:15:12.790Z,375
2022-12-02T03:16:12.124Z,379
2022-12-02T03:17:13.015Z,368
2022-12-02T03:18:13.067Z,371
2022-12-02T03:19:12.648Z,378
2022-12-02T03:20:13.282Z,373
2022-12-02T03:21:12.835Z,377
2022-12-02T03:22:12.271Z,379
2022-12-02T03:23:12.745Z,371
2022-12-02T03:24:12.264Z,374
2022-12-02T03:25:13.728Z,378
2022-12-02T03:26:12.597Z,377
2022-12-02T03:27:12.979Z,371
2022-12-02T03:28:12.162Z,360
2022-12-02T03:29:12.716Z,397
2022-12-02T03:30:17.899Z,390
2022-12-02T03:31:13.321Z,366
2022-12-02T03:32:12.803Z,378
2022-12-02T03:33:12.219Z,374
2022-12-02T03:34:12.577Z,377
2022-12-02T03:35:12.641Z,378
2022-12-02T03:36:12.096Z,387
2022-12-02T03:37:12.799Z,392
2022-12-02T03:39:13.087Z,389
2022-12-02T03:40:12.652Z,391
2022-12-02T03:41:13.212Z,385
2022-12-02T03:42:17.498Z,386
2022-12-02T03:43:12.229Z,380
2022-12-02T03:44:17.673Z,377
2022-12-02T03:45:12.263Z,383
2022-12-02T03:46:17.712Z,382
2022-12-02T03:47:12.197Z,378
2022-12-02T03:48:17.331Z,371
2022-12-02T03:49:12.960Z,381
2022-12-02T03:50:12.088Z,387
2022-12-02T03:51:12.082Z,375
2022-12-02T03:52:12.258Z,378
2022-12-02T03:53:12.579Z,362
2022-12-02T03:54:12.731Z,374
2022-12-02T03:55:13.077Z,379
2022-12-02T03:56:12.489Z,376
2022-12-02T03:57:13.211Z,367
2022-12-02T03:59:12.113Z,373
2022-12-02T04:00:16.260Z,388
2022-12-02T04:01:12.403Z,390
2022-12-02T04:02:27.209Z,389
2022-12-02T04:03:13.017Z,376
2022-12-02T04:04:12.960Z,374
2022-12-02T04:05:12.485Z,387
2022-12-02T04:06:12.686Z,395
2022-12-02T04:07:12.893Z,389
2022-12-02T04:08:12.361Z,370
2022-12-02T04:09:12.806Z,367
2022-12-02T04:10:12.144Z,380
2022-12-02T04:12:12.556Z,389
2022-12-02T04:13:13.069Z,382
2022-12-02T04:14:13.048Z,384
2022-12-02T04:15:12.654Z,392
2022-12-02T04:16:31.881Z,385
2022-12-02T04:17:13.170Z,383
2022-12-02T04:18:12.400Z,380
2022-12-02T04:19:13.095Z,383
2022-12-02T04:20:12.732Z,382
2022-12-02T04:21:12.323Z,379
2022-12-02T04:22:13.030Z,381
2022-12-02T04:23:12.584Z,378
2022-12-02T04:24:13.274Z,387
2022-12-02T04:25:13.097Z,397
2022-12-02T04:26:12.711Z,405
2022-12-02T04:27:12.492Z,394
2022-12-02T04:28:12.315Z,385
2022-12-02T04:29:12.809Z,393
2022-12-02T04:30:12.566Z,392
2022-12-02T04:31:12.137Z,393
2022-12-02T04:32:12.857Z,390
2022-12-02T04:33:12.704Z,388
2022-12-02T04:34:12.762Z,399
2022-12-02T04:35:12.724Z,401
2022-12-02T04:36:12.665Z,393
2022-12-02T04:37:12.206Z,389
2022-12-02T04:38:12.962Z,400
2022-12-02T04:39:12.904Z,394
2022-12-02T04:40:12.396Z,399
2022-12-02T04:41:13.269Z,392
2022-12-02T04:43:11.934Z,388
2022-12-02T04:44:17.798Z,387
2022-12-02T04:45:12.537Z,391
2022-12-02T04:46:13.012Z,394
2022-12-02T04:47:12.934Z,389
2022-12-02T04:48:12.280Z,385
2022-12-02T04:49:12.472Z,388
2022-12-02T04:50:13.096Z,399
2022-12-02T04:51:12.545Z,393
2022-12-02T04:52:13.084Z,387
2022-12-02T04:53:12.340Z,379
2022-12-02T04:54:12.594Z,376
2022-12-02T04:55:13.338Z,380
2022-12-02T04:56:12.923Z,378
2022-12-02T04:57:12.326Z,381
2022-12-02T04:58:12.836Z,389
2022-12-02T04:59:13.221Z,385
2022-12-02T05:00:14.130Z,376
2022-12-02T05:01:12.987Z,395
2022-12-02T05:02:12.538Z,402
2022-12-02T05:03:12.367Z,387
2022-12-02T05:04:12.515Z,381
2022-12-02T05:05:12.290Z,376
2022-12-02T05:06:12.838Z,383
2022-12-02T05:07:12.594Z,391
2022-12-02T05:08:12.217Z,383
2022-12-02T05:09:12.766Z,376
2022-12-02T05:10:12.035Z,379
2022-12-02T05:11:12.635Z,383
2022-12-02T05:12:12.690Z,384
2022-12-02T05:14:13.191Z,382
2022-12-02T05:15:12.125Z,380
2022-12-02T05:16:12.827Z,376
2022-12-02T05:17:12.729Z,384
2022-12-02T05:18:12.512Z,391
2022-12-02T05:19:12.266Z,392
2022-12-02T05:20:13.060Z,389
2022-12-02T05:21:12.819Z,382
2022-12-02T05:22:12.637Z,370
2022-12-02T05:23:12.460Z,376
2022-12-02T05:24:12.303Z,378
2022-12-02T05:25:12.956Z,382
2022-12-02T05:26:12.653Z,383
2022-12-02T05:27:13.064Z,387
2022-12-02T05:28:12.529Z,386
2022-12-02T05:29:12.833Z,381
2022-12-02T05:30:12.975Z,384
2022-12-02T05:31:12.675Z,372
2022-12-02T05:32:12.644Z,384
2022-12-02T05:33:12.545Z,385
2022-12-02T05:34:12.124Z,384
2022-12-02T05:35:13.037Z,385
2022-12-02T05:36:12.763Z,390
2022-12-02T05:37:12.707Z,381
2022-12-02T05:38:12.673Z,374
2022-12-02T05:39:12.769Z,395
2022-12-02T05:41:12.458Z,392
2022-12-02T05:42:12.244Z,389
2022-12-02T05:43:12.854Z,391
2022-12-02T05:44:12.797Z,392
2022-12-02T05:45:12.972Z,390
2022-12-02T05:46:12.843Z,396
2022-12-02T05:47:12.835Z,394
2022-12-02T05:48:12.565Z,386
2022-12-02T05:49:12.771Z,389
2022-12-02T05:50:12.642Z,383
2022-12-02T05:51:12.270Z,385
2022-12-02T05:52:12.900Z,390
2022-12-02T05:53:12.988Z,398
2022-12-02T05:54:12.772Z,384
2022-12-02T05:55:12.602Z,378
2022-12-02T05:57:13.214Z,374
2022-12-02T05:58:13.031Z,379
2022-12-02T05:59:12.989Z,388
2022-12-02T06:01:13.175Z,377
2022-12-02T06:02:13.402Z,378
2022-12-02T06:03:17.641Z,376
2022-12-02T06:04:12.961Z,373
2022-12-02T06:05:13.035Z,383
2022-12-02T06:06:12.694Z,382
2022-12-02T06:07:12.221Z,380
2022-12-02T06:08:12.717Z,371
2022-12-02T06:09:12.657Z,401
2022-12-02T06:10:12.514Z,395
2022-12-02T06:11:13.165Z,386
2022-12-02T06:12:12.634Z,383
2022-12-02T06:13:12.674Z,384
2022-12-02T06:14:12.079Z,382
2022-12-02T06:15:13.267Z,379
2022-12-02T06:16:12.900Z,381
2022-12-02T06:18:12.294Z,389
2022-12-02T06:19:12.885Z,386
2022-12-02T06:20:13.011Z,380
2022-12-02T06:21:21.037Z,388
2022-12-02T06:22:12.500Z,389
2022-12-02T06:23:26.479Z,386
2022-12-02T06:24:13.428Z,384
2022-12-02T06:25:12.893Z,390
2022-12-02T06:26:12.672Z,395
2022-12-02T06:27:12.681Z,401
2022-12-02T06:28:12.683Z,393
2022-12-02T06:29:13.563Z,389
2022-12-02T06:30:12.686Z,375
2022-12-02T06:31:13.156Z,392
2022-12-02T06:32:12.943Z,384
2022-12-02T06:33:16.850Z,383
2022-12-02T06:34:12.934Z,385
2022-12-02T06:35:13.201Z,380
2022-12-02T06:36:12.749Z,370
2022-12-02T06:37:12.736Z,377
2022-12-02T06:38:12.620Z,384
2022-12-02T06:39:12.596Z,385
2022-12-02T06:40:29.173Z,382
2022-12-02T06:41:12.793Z,395
2022-12-02T06:42:12.501Z,389
2022-12-02T06:43:12.978Z,369
2022-12-02T06:44:12.785Z,372
2022-12-02T06:45:12.934Z,388
2022-12-02T06:47:31.399Z,378
2022-12-02T06:48:12.824Z,375
2022-12-02T06:50:12.726Z,381
2022-12-02T06:51:12.615Z,378
2022-12-02T06:52:12.586Z,371
2022-12-02T06:53:35.071Z,359
2022-12-02T06:54:12.490Z,385
2022-12-02T06:55:13.342Z,389
2022-12-02T06:56:13.068Z,387
2022-12-02T06:57:35.488Z,390
2022-12-02T06:59:12.509Z,380
2022-12-02T07:00:14.410Z,373
2022-12-02T07:01:13.262Z,380
2022-12-02T07:02:13.433Z,379
2022-12-02T07:03:12.901Z,378
2022-12-02T07:04:12.867Z,380
2022-12-02T07:05:12.888Z,379
2022-12-02T07:06:12.722Z,382
2022-12-02T07:07:12.322Z,388
2022-12-02T07:09:17.664Z,382
2022-12-02T07:10:13.153Z,385
2022-12-02T07:12:13.704Z,377
2022-12-02T07:13:12.698Z,374
2022-12-02T07:14:12.562Z,376
2022-12-02T07:15:12.882Z,382
2022-12-02T07:16:12.972Z,386
2022-12-02T07:17:12.993Z,399
2022-12-02T07:18:12.919Z,385
2022-12-02T07:19:12.794Z,373
2022-12-02T07:20:13.043Z,374
2022-12-02T07:21:12.743Z,370
2022-12-02T07:22:12.467Z,372
2022-12-02T07:23:12.657Z,370
2022-12-02T07:24:12.381Z,374
2022-12-02T07:25:13.321Z,380
2022-12-02T07:26:12.926Z,384
2022-12-02T07:27:12.422Z,381
2022-12-02T07:28:13.041Z,387
2022-12-02T07:29:15.989Z,395
2022-12-02T07:30:12.786Z,383
2022-12-02T07:31:12.813Z,378
2022-12-02T07:32:12.635Z,381
2022-12-02T07:33:13.408Z,378
2022-12-02T07:34:12.271Z,384
2022-12-02T07:36:13.369Z,385
2022-12-02T07:37:13.156Z,392
2022-12-02T07:38:12.761Z,386
2022-12-02T07:39:12.687Z,361
2022-12-02T07:40:12.478Z,386
2022-12-02T07:41:12.507Z,381
2022-12-02T07:42:13.549Z,378
2022-12-02T07:43:12.899Z,384
2022-12-02T07:45:13.541Z,382
2022-12-02T07:46:13.264Z,392
2022-12-02T07:47:12.901Z,386
2022-12-02T07:48:12.535Z,378
2022-12-02T07:49:12.088Z,382
2022-12-02T07:50:13.008Z,395
2022-12-02T07:51:12.693Z,389
2022-12-02T07:52:12.704Z,387
2022-12-02T07:54:13.123Z,389
2022-12-02T07:55:13.127Z,395
2022-12-02T07:56:12.873Z,383
2022-12-02T07:57:13.046Z,378
2022-12-02T07:58:13.242Z,373
2022-12-02T07:59:13.904Z,386
2022-12-02T08:00:14.321Z,389
2022-12-02T08:01:17.573Z,376
2022-12-02T08:02:13.446Z,397
2022-12-02T08:03:12.220Z,389
2022-12-02T08:04:12.969Z,386
2022-12-02T08:06:12.062Z,388
2022-12-02T08:07:12.945Z,395
2022-12-02T08:08:12.507Z,394
2022-12-02T08:09:13.179Z,389
2022-12-02T08:10:13.330Z,393
2022-12-02T08:11:13.014Z,387
2022-12-02T08:12:12.710Z,390
2022-12-02T08:13:12.385Z,384
2022-12-02T08:14:13.096Z,372
2022-12-02T08:15:13.341Z,384
2022-12-02T08:16:13.334Z,394
2022-12-02T08:17:12.554Z,386
2022-12-02T08:18:13.278Z,391
2022-12-02T08:19:12.794Z,387
2022-12-02T08:21:12.398Z,389
2022-12-02T08:22:12.691Z,390
2022-12-02T08:23:12.298Z,382
2022-12-02T08:24:13.281Z,386
2022-12-02T08:25:13.245Z,404
2022-12-02T08:26:12.699Z,374
2022-12-02T08:27:13.054Z,382
2022-12-02T08:28:13.103Z,378
2022-12-02T08:29:13.046Z,388
2022-12-02T08:30:18.686Z,392
2022-12-02T08:31:12.788Z,390
2022-12-02T08:32:18.039Z,389
2022-12-02T08:33:12.841Z,395
2022-12-02T08:34:13.104Z,391
2022-12-02T08:35:13.196Z,396
2022-12-02T08:36:18.021Z,402
2022-12-02T08:37:13.091Z,393
2022-12-02T08:39:13.121Z,388
2022-12-02T08:40:18.384Z,377
2022-12-02T08:41:14.186Z,376
2022-12-02T08:42:12.982Z,391
2022-12-02T08:43:13.083Z,388
2022-12-02T08:45:12.675Z,382
2022-12-02T08:46:26.040Z,380
2022-12-02T08:47:13.058Z,391
2022-12-02T08:48:12.637Z,384
2022-12-02T08:49:13.162Z,376
2022-12-02T08:50:22.503Z,379
2022-12-02T08:51:12.622Z,394
2022-12-02T08:54:13.322Z,392
2022-12-02T08:56:27.810Z,402
2022-12-02T08:57:13.110Z,401
2022-12-02T08:58:12.819Z,394
2022-12-02T09:00:28.678Z,401
2022-12-02T09:01:13.530Z,393
2022-12-02T09:02:13.404Z,384
2022-12-02T09:03:13.399Z,396
2022-12-02T09:04:32.520Z,387
2022-12-02T09:05:13.522Z,380
2022-12-02T09:06:12.664Z,373
2022-12-02T09:07:13.137Z,377
2022-12-02T09:08:31.811Z,384
2022-12-02T09:09:13.574Z,386
2022-12-02T09:10:12.590Z,395
2022-12-02T09:11:13.241Z,383
2022-12-02T09:12:13.355Z,395
2022-12-02T09:13:12.799Z,394
2022-12-02T09:14:13.492Z,391
2022-12-02T09:15:13.540Z,389
2022-12-02T09:16:13.000Z,384
2022-12-02T09:17:13.510Z,390
2022-12-02T09:18:14.606Z,389
2022-12-02T09:19:13.254Z,392
2022-12-02T09:20:14.227Z,390
2022-12-02T09:23:13.385Z,389
2022-12-02T09:24:12.493Z,386
2022-12-02T09:25:12.679Z,377
2022-12-02T09:27:13.689Z,377
2022-12-02T09:28:12.924Z,379
2022-12-02T09:29:12.490Z,383
2022-12-02T09:30:13.904Z,392
2022-12-02T09:31:13.680Z,394
2022-12-02T09:33:12.865Z,398
2022-12-02T09:34:12.982Z,393
2022-12-02T09:35:13.556Z,390
2022-12-02T09:36:13.255Z,388
2022-12-02T09:37:12.799Z,394
2022-12-02T09:38:13.374Z,404
2022-12-02T09:39:12.548Z,394
2022-12-02T09:40:13.100Z,398
2022-12-02T09:41:13.820Z,401
2022-12-02T09:42:13.292Z,400
2022-12-02T09:43:12.986Z,397
2022-12-02T09:44:13.381Z,386
2022-12-02T09:45:13.204Z,385
2022-12-02T09:47:13.446Z,385
2022-12-02T09:48:13.302Z,383
2022-12-02T09:49:13.109Z,380
2022-12-02T09:50:12.696Z,390
2022-12-02T09:51:13.654Z,399
2022-12-02T09:52:13.005Z,393
2022-12-02T09:53:13.262Z,396
2022-12-02T09:54:13.094Z,402
2022-12-02T09:55:12.951Z,392
2022-12-02T09:56:13.487Z,379
2022-12-02T09:57:13.052Z,407
2022-12-02T09:58:13.499Z,397
2022-12-02T09:59:12.935Z,396
2022-12-02T10:00:14.519Z,399
2022-12-02T10:01:13.511Z,394
2022-12-02T10:02:13.041Z,396
2022-12-02T10:03:18.359Z,402
2022-12-02T10:04:13.335Z,393
2022-12-02T10:05:12.315Z,392
2022-12-02T10:06:13.752Z,391
2022-12-02T10:07:13.704Z,396
2022-12-02T10:08:13.977Z,393
2022-12-02T10:09:13.393Z,392
2022-12-02T10:10:12.783Z,399
2022-12-02T10:11:13.307Z,398
2022-12-02T10:12:12.894Z,397
2022-12-02T10:14:13.475Z,391
2022-12-02T10:15:12.890Z,392
2022-12-02T10:16:13.189Z,385
2022-12-02T10:17:12.982Z,382
2022-12-02T10:18:13.468Z,375
2022-12-02T10:19:12.991Z,402
2022-12-02T10:20:13.666Z,395
2022-12-02T10:21:13.329Z,388
2022-12-02T10:22:12.678Z,391
2022-12-02T10:23:13.367Z,399
2022-12-02T10:24:12.921Z,402
2022-12-02T10:25:14.051Z,391
2022-12-02T10:26:13.247Z,381
2022-12-02T10:27:13.993Z,372
2022-12-02T10:28:13.512Z,385
2022-12-02T10:29:13.518Z,388
2022-12-02T10:30:14.408Z,390
2022-12-02T10:31:14.424Z,395
2022-12-02T10:32:13.847Z,391
2022-12-02T10:33:14.002Z,399
2022-12-02T10:34:13.900Z,398
2022-12-02T10:35:14.171Z,399
2022-12-02T10:36:13.529Z,393
2022-12-02T10:37:13.294Z,400
2022-12-02T10:38:14.529Z,401
2022-12-02T10:39:13.393Z,395
2022-12-02T10:40:13.725Z,383
2022-12-02T10:41:13.567Z,408
2022-12-02T10:42:13.785Z,417
2022-12-02T10:43:13.612Z,389
2022-12-02T10:44:13.276Z,391
2022-12-02T10:45:13.911Z,393
2022-12-02T10:46:13.328Z,392
2022-12-02T10:47:13.138Z,401
2022-12-02T10:48:13.035Z,410
2022-12-02T10:49:12.842Z,400
2022-12-02T10:50:13.593Z,395
2022-12-02T10:51:13.458Z,398
2022-12-02T10:52:13.029Z,401
2022-12-02T10:53:14.042Z,402
2022-12-02T10:55:13.316Z,392
2022-12-02T10:56:12.838Z,395
2022-12-02T10:57:13.098Z,393
2022-12-02T10:59:13.019Z,397
2022-12-02T11:00:14.418Z,401
2022-12-02T11:01:18.262Z,403
2022-12-02T11:02:13.426Z,397
2022-12-02T11:03:18.325Z,396
2022-12-02T11:04:13.752Z,398
2022-12-02T11:05:18.244Z,371
2022-12-02T11:06:13.454Z,391
2022-12-02T11:07:21.138Z,399
2022-12-02T11:08:17.755Z,397
2022-12-02T11:09:39.023Z,391
2022-12-02T11:11:12.898Z,384
2022-12-02T11:12:13.109Z,382
2022-12-02T11:13:26.843Z,390
2022-12-02T11:14:13.893Z,396
2022-12-02T11:15:22.532Z,403
2022-12-02T11:16:13.642Z,398
2022-12-02T11:17:27.697Z,395
2022-12-02T11:18:13.464Z,402
2022-12-02T11:19:27.502Z,401
2022-12-02T11:20:14.207Z,394
2022-12-02T11:21:28.015Z,393
2022-12-02T11:22:13.442Z,398
2022-12-02T11:23:13.269Z,402
2022-12-02T11:24:13.612Z,388
2022-12-02T11:25:15.195Z,396
2022-12-02T11:26:13.269Z,403
2022-12-02T11:27:18.158Z,407
2022-12-02T11:28:13.299Z,410
2022-12-02T11:29:14.124Z,401
2022-12-02T11:30:14.287Z,394
2022-12-02T11:31:32.074Z,397
2022-12-02T11:32:12.886Z,390
2022-12-02T11:33:13.977Z,391
2022-12-02T11:34:13.748Z,390
2022-12-02T11:35:19.127Z,404
2022-12-02T11:36:13.400Z,400
2022-12-02T11:37:13.376Z,389
2022-12-02T11:39:13.136Z,393
2022-12-02T11:40:14.115Z,397
2022-12-02T11:41:13.357Z,399
2022-12-02T11:42:13.083Z,401
2022-12-02T11:43:13.031Z,407
2022-12-02T11:44:13.551Z,404
2022-12-02T11:45:35.627Z,400
2022-12-02T11:46:18.601Z,392
2022-12-02T11:47:35.432Z,392
2022-12-02T11:48:13.789Z,397
2022-12-02T11:49:13.455Z,396
2022-12-02T11:50:13.310Z,410
2022-12-02T11:51:13.365Z,400
2022-12-02T11:52:12.656Z,405
2022-12-02T11:53:13.650Z,409
2022-12-02T11:54:13.390Z,400
2022-12-02T11:56:12.745Z,405
2022-12-02T11:58:13.237Z,398
2022-12-02T12:00:14.009Z,398
2022-12-02T12:01:13.722Z,395
2022-12-02T12:03:13.362Z,407
2022-12-02T12:04:13.641Z,400
2022-12-02T12:05:13.183Z,398
2022-12-02T12:06:13.466Z,403
2022-12-02T12:08:13.131Z,401
2022-12-02T12:09:13.316Z,403
2022-12-02T12:10:13.491Z,397
2022-12-02T12:12:13.972Z,396
2022-12-02T12:13:13.698Z,399
2022-12-02T12:15:14.344Z,398
2022-12-02T12:16:12.991Z,400
2022-12-02T12:17:14.032Z,407
2022-12-02T12:18:13.652Z,398
2022-12-02T12:19:12.875Z,413
2022-12-02T12:20:13.682Z,410
2022-12-02T12:21:13.071Z,395
2022-12-02T12:22:13.166Z,403
2022-12-02T12:24:13.251Z,399
2022-12-02T12:25:12.833Z,392
2022-12-02T12:26:13.293Z,398
2022-12-02T12:27:13.826Z,395
2022-12-02T12:28:13.616Z,396
2022-12-02T12:30:13.949Z,408
2022-12-02T12:32:13.711Z,396
2022-12-02T12:33:13.551Z,393
2022-12-02T12:34:13.461Z,398
2022-12-02T12:35:13.293Z,408
2022-12-02T12:36:13.231Z,410
2022-12-02T12:37:13.671Z,407
2022-12-02T12:38:13.060Z,390
2022-12-02T12:39:13.615Z,388
2022-12-02T12:40:12.966Z,396
2022-12-02T12:41:14.983Z,404
2022-12-02T12:42:13.168Z,399
2022-12-02T12:44:13.721Z,403
2022-12-02T12:45:13.093Z,395
2022-12-02T12:46:13.429Z,394
2022-12-02T12:47:13.420Z,397
2022-12-02T12:49:13.054Z,394
2022-12-02T12:50:13.719Z,398
2022-12-02T12:51:13.558Z,403
2022-12-02T12:52:13.815Z,395
2022-12-02T12:53:13.541Z,399
2022-12-02T12:54:13.182Z,393
2022-12-02T12:55:13.241Z,389
2022-12-02T12:56:13.691Z,379
2022-12-02T12:57:14.251Z,402
2022-12-02T12:58:13.745Z,410
2022-12-02T12:59:13.358Z,395
2022-12-02T13:00:14.424Z,392
2022-12-02T13:01:13.671Z,397
2022-12-02T13:02:13.495Z,418
2022-12-02T13:03:14.064Z,410
2022-12-02T13:04:13.467Z,399
2022-12-02T13:05:13.210Z,397
2022-12-02T13:06:13.338Z,395
2022-12-02T13:07:12.854Z,393
2022-12-02T13:08:13.329Z,407
2022-12-02T13:09:13.531Z,406
2022-12-02T13:10:13.619Z,405
2022-12-02T13:11:13.546Z,392
2022-12-02T13:13:13.365Z,394
2022-12-02T13:14:13.584Z,396
2022-12-02T13:15:13.899Z,399
2022-12-02T13:16:13.471Z,393
2022-12-02T13:17:13.510Z,386
2022-12-02T13:18:13.707Z,397
2022-12-02T13:19:13.391Z,405
2022-12-02T13:20:18.184Z,374
2022-12-02T13:21:13.047Z,370
2022-12-02T13:22:18.240Z,382
2022-12-02T13:23:13.846Z,376
2022-12-02T13:24:18.186Z,371
2022-12-02T13:25:13.428Z,374
2022-12-02T13:26:15.339Z,380
2022-12-02T13:27:13.033Z,386
2022-12-02T13:30:18.149Z,382
2022-12-02T13:31:13.590Z,381
2022-12-02T13:32:13.373Z,373
2022-12-02T13:33:13.422Z,375
2022-12-02T13:34:21.165Z,380
2022-12-02T13:35:17.348Z,374
2022-12-02T13:36:21.158Z,378
2022-12-02T13:37:13.588Z,379
2022-12-02T13:38:13.010Z,380
2022-12-02T13:39:13.491Z,383
2022-12-02T13:40:27.308Z,387
2022-12-02T13:41:12.441Z,393
2022-12-02T13:42:12.620Z,368
2022-12-02T13:43:13.811Z,371
2022-12-02T13:44:13.003Z,372
2022-12-02T13:45:13.204Z,370
2022-12-02T13:46:26.506Z,381
2022-12-02T13:47:13.867Z,386
2022-12-02T13:48:26.712Z,378
2022-12-02T13:49:13.368Z,369
2022-12-02T13:50:13.191Z,373
2022-12-02T13:51:12.583Z,381
2022-12-02T13:52:27.062Z,383
2022-12-02T13:53:13.483Z,382
2022-12-02T13:54:13.528Z,387
2022-12-02T13:55:14.129Z,376
2022-12-02T13:56:32.303Z,378
2022-12-02T13:57:12.842Z,384
2022-12-02T13:58:13.667Z,373
2022-12-02T13:59:13.368Z,371
2022-12-02T14:01:13.595Z,373
2022-12-02T14:02:13.381Z,384
2022-12-02T14:04:13.298Z,361
2022-12-02T14:05:12.890Z,388
2022-12-02T14:06:12.892Z,386
2022-12-02T14:07:13.200Z,375
2022-12-02T14:08:34.945Z,381
2022-12-02T14:09:12.654Z,375
2022-12-02T14:10:13.500Z,384
2022-12-02T14:11:13.387Z,382
2022-12-02T14:12:12.961Z,383
2022-12-02T14:14:13.511Z,382
2022-12-02T14:15:13.677Z,390
2022-12-02T14:17:13.385Z,376
2022-12-02T14:18:13.023Z,377
2022-12-02T14:19:12.736Z,378
2022-12-02T14:22:13.519Z,388
2022-12-02T14:23:13.528Z,389
2022-12-02T14:24:13.142Z,387
2022-12-02T14:25:13.756Z,389
2022-12-02T14:26:12.809Z,385
2022-12-02T14:27:12.903Z,413
2022-12-02T14:28:13.342Z,403
2022-12-02T14:29:12.418Z,385
2022-12-02T14:30:13.360Z,391
2022-12-02T14:32:14.122Z,388
2022-12-02T14:33:12.882Z,392
2022-12-02T14:35:13.658Z,386
2022-12-02T14:36:13.665Z,374
2022-12-02T14:37:15.057Z,376
2022-12-02T14:39:13.950Z,381
2022-12-02T14:40:13.831Z,389
2022-12-02T14:41:13.301Z,375
2022-12-02T14:42:12.943Z,378
2022-12-02T14:43:14.644Z,389
2022-12-02T14:44:13.388Z,383
2022-12-02T14:45:13.658Z,381
2022-12-02T14:47:13.368Z,391
2022-12-02T14:48:13.025Z,372
2022-12-02T14:49:38.524Z,394
2022-12-02T14:50:13.271Z,390
2022-12-02T14:51:13.234Z,371
2022-12-02T14:53:13.804Z,369
2022-12-02T14:55:13.214Z,387
2022-12-02T14:56:12.703Z,389
2022-12-02T14:57:13.935Z,386
2022-12-02T14:58:13.447Z,381
2022-12-02T14:59:14.997Z,375
2022-12-02T15:01:13.357Z,376
2022-12-02T15:02:13.400Z,377